sensor_id;sensor_type;location;lat;lon;timestamp;P1;durP1;ratioP1;P2;durP2;ratioP2
40781;SDS011;26493;51.938;7.626;2022-10-19T00:01:42;28.67;;;12.18;;
40781;SDS011;26493;51.938;7.626;2022-10-19T00:04:08;24.05;;;11.73;;
40781;SDS011;26493;51.938;7.626;2022-10-19T00:06:34;21.77;;;11.35;;
40781;SDS011;26493;51.938;7.626;2022-10-19T00:09:08;26.50;;;12.18;;
40781;SDS011;26493;51.938;7.626;2022-10-19T00:11:35;22.90;;;12.32;;
40781;SDS011;26493;51.938;7.626;2022-10-19T00:14:02;25.20;;;12.13;;
40781;SDS011;26493;51.938;7.626;2022-10-19T00:16:30;21.58;;;11.70;;
40781;SDS011;26493;51.938;7.626;2022-10-19T00:18:57;27.15;;;12.60;;
40781;SDS011;26493;51.938;7.626;2022-10-19T00:21:23;23.08;;;12.07;;
40781;SDS011;26493;51.938;7.626;2022-10-19T00:23:49;22.27;;;11.93;;
40781;SDS011;26493;51.938;7.626;2022-10-19T00:26:15;20.52;;;11.77;;
40781;SDS011;26493;51.938;7.626;2022-10-19T00:28:41;22.92;;;12.65;;
40781;SDS011;26493;51.938;7.626;2022-10-19T00:31:08;23.95;;;12.07;;
40781;SDS011;26493;51.938;7.626;2022-10-19T00:33:35;22.20;;;12.77;;
40781;SDS011;26493;51.938;7.626;2022-10-19T00:36:01;28.52;;;14.07;;
40781;SDS011;26493;51.938;7.626;2022-10-19T00:38:28;32.58;;;13.13;;
40781;SDS011;26493;51.938;7.626;2022-10-19T00:40:54;24.15;;;13.25;;
40781;SDS011;26493;51.938;7.626;2022-10-19T00:43:24;25.83;;;12.63;;
40781;SDS011;26493;51.938;7.626;2022-10-19T00:45:50;24.05;;;13.30;;
40781;SDS011;26493;51.938;7.626;2022-10-19T00:48:19;23.25;;;13.45;;
40781;SDS011;26493;51.938;7.626;2022-10-19T00:50:48;24.15;;;13.57;;
40781;SDS011;26493;51.938;7.626;2022-10-19T00:53:14;21.58;;;12.55;;
40781;SDS011;26493;51.938;7.626;2022-10-19T00:55:40;23.05;;;12.50;;
40781;SDS011;26493;51.938;7.626;2022-10-19T00:58:07;29.40;;;13.63;;
40781;SDS011;26493;51.938;7.626;2022-10-19T01:00:33;23.90;;;12.88;;
40781;SDS011;26493;51.938;7.626;2022-10-19T01:03:00;31.35;;;13.48;;
40781;SDS011;26493;51.938;7.626;2022-10-19T01:05:27;26.15;;;13.18;;
40781;SDS011;26493;51.938;7.626;2022-10-19T01:07:53;26.10;;;12.82;;
40781;SDS011;26493;51.938;7.626;2022-10-19T01:10:21;26.95;;;13.57;;
40781;SDS011;26493;51.938;7.626;2022-10-19T01:12:57;27.83;;;14.02;;
40781;SDS011;26493;51.938;7.626;2022-10-19T01:15:31;22.85;;;13.02;;
40781;SDS011;26493;51.938;7.626;2022-10-19T01:18:11;25.52;;;13.02;;
40781;SDS011;26493;51.938;7.626;2022-10-19T01:21:01;21.92;;;13.35;;
40781;SDS011;26493;51.938;7.626;2022-10-19T01:31:28;26.75;;;12.50;;
40781;SDS011;26493;51.938;7.626;2022-10-19T01:33:47;22.63;;;12.10;;
40781;SDS011;26493;51.938;7.626;2022-10-19T01:36:25;22.98;;;13.30;;
40781;SDS011;26493;51.938;7.626;2022-10-19T01:41:26;23.00;;;13.45;;
40781;SDS011;26493;51.938;7.626;2022-10-19T01:48:55;24.67;;;13.02;;
40781;SDS011;26493;51.938;7.626;2022-10-19T01:51:27;22.60;;;13.10;;
40781;SDS011;26493;51.938;7.626;2022-10-19T01:53:56;22.13;;;13.75;;
40781;SDS011;26493;51.938;7.626;2022-10-19T01:56:24;20.10;;;11.98;;
40781;SDS011;26493;51.938;7.626;2022-10-19T01:58:51;24.73;;;12.95;;
40781;SDS011;26493;51.938;7.626;2022-10-19T02:01:18;24.33;;;12.68;;
40781;SDS011;26493;51.938;7.626;2022-10-19T02:03:46;24.92;;;14.10;;
40781;SDS011;26493;51.938;7.626;2022-10-19T02:06:12;23.58;;;13.35;;
40781;SDS011;26493;51.938;7.626;2022-10-19T02:08:49;22.30;;;12.68;;
40781;SDS011;26493;51.938;7.626;2022-10-19T02:11:16;23.50;;;14.05;;
40781;SDS011;26493;51.938;7.626;2022-10-19T02:13:42;23.00;;;13.07;;
40781;SDS011;26493;51.938;7.626;2022-10-19T02:16:12;22.02;;;13.18;;
40781;SDS011;26493;51.938;7.626;2022-10-19T02:18:40;29.00;;;14.23;;
40781;SDS011;26493;51.938;7.626;2022-10-19T02:23:34;20.48;;;12.63;;
40781;SDS011;26493;51.938;7.626;2022-10-19T02:26:00;24.08;;;13.70;;
40781;SDS011;26493;51.938;7.626;2022-10-19T02:28:27;24.75;;;13.25;;
40781;SDS011;26493;51.938;7.626;2022-10-19T02:30:53;20.70;;;12.75;;
40781;SDS011;26493;51.938;7.626;2022-10-19T02:33:19;23.38;;;13.68;;
40781;SDS011;26493;51.938;7.626;2022-10-19T02:35:45;21.67;;;12.68;;
40781;SDS011;26493;51.938;7.626;2022-10-19T02:38:13;23.92;;;13.07;;
40781;SDS011;26493;51.938;7.626;2022-10-19T02:40:41;24.50;;;13.20;;
40781;SDS011;26493;51.938;7.626;2022-10-19T02:43:12;22.80;;;12.80;;
40781;SDS011;26493;51.938;7.626;2022-10-19T02:45:41;18.83;;;12.43;;
40781;SDS011;26493;51.938;7.626;2022-10-19T02:48:10;21.90;;;12.95;;
40781;SDS011;26493;51.938;7.626;2022-10-19T02:50:41;23.42;;;13.45;;
40781;SDS011;26493;51.938;7.626;2022-10-19T02:53:07;24.38;;;12.77;;
40781;SDS011;26493;51.938;7.626;2022-10-19T02:55:34;21.60;;;12.38;;
40781;SDS011;26493;51.938;7.626;2022-10-19T02:58:00;23.35;;;12.85;;
40781;SDS011;26493;51.938;7.626;2022-10-19T03:00:26;24.33;;;12.85;;
40781;SDS011;26493;51.938;7.626;2022-10-19T03:02:52;23.65;;;12.63;;
40781;SDS011;26493;51.938;7.626;2022-10-19T03:05:18;24.48;;;13.95;;
40781;SDS011;26493;51.938;7.626;2022-10-19T03:07:44;21.73;;;13.35;;
40781;SDS011;26493;51.938;7.626;2022-10-19T03:10:10;22.85;;;12.63;;
40781;SDS011;26493;51.938;7.626;2022-10-19T03:12:36;23.10;;;13.68;;
40781;SDS011;26493;51.938;7.626;2022-10-19T03:15:02;21.77;;;13.10;;
40781;SDS011;26493;51.938;7.626;2022-10-19T03:17:29;24.15;;;12.82;;
40781;SDS011;26493;51.938;7.626;2022-10-19T03:19:54;21.27;;;11.80;;
40781;SDS011;26493;51.938;7.626;2022-10-19T03:22:20;24.25;;;13.48;;
40781;SDS011;26493;51.938;7.626;2022-10-19T03:24:46;25.75;;;13.85;;
40781;SDS011;26493;51.938;7.626;2022-10-19T03:27:12;21.23;;;13.52;;
40781;SDS011;26493;51.938;7.626;2022-10-19T03:29:38;24.83;;;13.40;;
40781;SDS011;26493;51.938;7.626;2022-10-19T03:32:05;25.90;;;15.43;;
40781;SDS011;26493;51.938;7.626;2022-10-19T03:34:31;25.50;;;13.68;;
40781;SDS011;26493;51.938;7.626;2022-10-19T03:36:57;21.58;;;12.93;;
40781;SDS011;26493;51.938;7.626;2022-10-19T03:39:23;25.73;;;13.90;;
40781;SDS011;26493;51.938;7.626;2022-10-19T03:41:52;25.02;;;12.90;;
40781;SDS011;26493;51.938;7.626;2022-10-19T03:44:18;23.88;;;13.07;;
40781;SDS011;26493;51.938;7.626;2022-10-19T03:46:44;24.38;;;14.57;;
40781;SDS011;26493;51.938;7.626;2022-10-19T03:49:10;25.95;;;14.07;;
40781;SDS011;26493;51.938;7.626;2022-10-19T03:51:36;27.20;;;13.15;;
40781;SDS011;26493;51.938;7.626;2022-10-19T03:54:03;22.33;;;12.88;;
40781;SDS011;26493;51.938;7.626;2022-10-19T03:56:30;26.60;;;14.50;;
40781;SDS011;26493;51.938;7.626;2022-10-19T03:58:58;30.10;;;17.63;;
40781;SDS011;26493;51.938;7.626;2022-10-19T04:01:43;28.08;;;15.23;;
40781;SDS011;26493;51.938;7.626;2022-10-19T04:04:11;23.65;;;14.20;;
40781;SDS011;26493;51.938;7.626;2022-10-19T04:06:39;22.75;;;14.55;;
40781;SDS011;26493;51.938;7.626;2022-10-19T04:09:05;26.33;;;14.50;;
40781;SDS011;26493;51.938;7.626;2022-10-19T04:11:32;24.55;;;14.65;;
40781;SDS011;26493;51.938;7.626;2022-10-19T04:13:58;24.27;;;14.07;;
40781;SDS011;26493;51.938;7.626;2022-10-19T04:16:25;23.33;;;14.60;;
40781;SDS011;26493;51.938;7.626;2022-10-19T04:18:51;22.65;;;13.80;;
40781;SDS011;26493;51.938;7.626;2022-10-19T04:21:21;24.73;;;16.05;;
40781;SDS011;26493;51.938;7.626;2022-10-19T04:23:48;26.17;;;14.40;;
40781;SDS011;26493;51.938;7.626;2022-10-19T04:26:14;27.90;;;14.43;;
40781;SDS011;26493;51.938;7.626;2022-10-19T04:28:40;27.75;;;13.75;;
40781;SDS011;26493;51.938;7.626;2022-10-19T04:31:06;23.48;;;13.55;;
40781;SDS011;26493;51.938;7.626;2022-10-19T04:33:33;20.60;;;12.15;;
40781;SDS011;26493;51.938;7.626;2022-10-19T04:35:59;25.77;;;14.60;;
40781;SDS011;26493;51.938;7.626;2022-10-19T04:38:26;22.55;;;13.63;;
40781;SDS011;26493;51.938;7.626;2022-10-19T04:40:53;26.88;;;13.73;;
40781;SDS011;26493;51.938;7.626;2022-10-19T04:43:19;28.58;;;14.23;;
40781;SDS011;26493;51.938;7.626;2022-10-19T04:45:45;22.38;;;13.95;;
40781;SDS011;26493;51.938;7.626;2022-10-19T04:48:11;24.45;;;13.95;;
40781;SDS011;26493;51.938;7.626;2022-10-19T04:50:37;23.98;;;13.18;;
40781;SDS011;26493;51.938;7.626;2022-10-19T04:53:03;21.25;;;12.18;;
40781;SDS011;26493;51.938;7.626;2022-10-19T04:55:29;27.08;;;13.40;;
40781;SDS011;26493;51.938;7.626;2022-10-19T04:57:55;20.02;;;12.45;;
40781;SDS011;26493;51.938;7.626;2022-10-19T05:00:21;23.58;;;13.30;;
40781;SDS011;26493;51.938;7.626;2022-10-19T05:02:47;24.00;;;14.88;;
40781;SDS011;26493;51.938;7.626;2022-10-19T05:05:13;28.73;;;14.35;;
40781;SDS011;26493;51.938;7.626;2022-10-19T05:07:39;26.27;;;14.32;;
40781;SDS011;26493;51.938;7.626;2022-10-19T05:10:06;27.52;;;14.23;;
40781;SDS011;26493;51.938;7.626;2022-10-19T05:12:35;27.55;;;15.30;;
40781;SDS011;26493;51.938;7.626;2022-10-19T05:15:01;23.95;;;14.25;;
40781;SDS011;26493;51.938;7.626;2022-10-19T05:17:30;21.77;;;14.27;;
40781;SDS011;26493;51.938;7.626;2022-10-19T05:19:57;26.73;;;14.38;;
40781;SDS011;26493;51.938;7.626;2022-10-19T05:22:23;21.77;;;13.48;;
40781;SDS011;26493;51.938;7.626;2022-10-19T05:24:49;27.30;;;15.25;;
40781;SDS011;26493;51.938;7.626;2022-10-19T05:27:15;23.80;;;14.50;;
40781;SDS011;26493;51.938;7.626;2022-10-19T05:29:41;21.73;;;13.85;;
40781;SDS011;26493;51.938;7.626;2022-10-19T05:32:07;27.58;;;16.38;;
40781;SDS011;26493;51.938;7.626;2022-10-19T05:34:33;24.38;;;15.05;;
40781;SDS011;26493;51.938;7.626;2022-10-19T05:36:59;25.15;;;14.85;;
40781;SDS011;26493;51.938;7.626;2022-10-19T05:39:25;26.80;;;16.08;;
40781;SDS011;26493;51.938;7.626;2022-10-19T05:41:51;26.67;;;17.45;;
40781;SDS011;26493;51.938;7.626;2022-10-19T05:44:21;27.13;;;16.40;;
40781;SDS011;26493;51.938;7.626;2022-10-19T05:46:48;26.17;;;15.43;;
40781;SDS011;26493;51.938;7.626;2022-10-19T05:49:15;24.60;;;15.65;;
40781;SDS011;26493;51.938;7.626;2022-10-19T05:51:41;27.52;;;17.08;;
40781;SDS011;26493;51.938;7.626;2022-10-19T05:54:08;29.00;;;16.73;;
40781;SDS011;26493;51.938;7.626;2022-10-19T05:56:34;27.20;;;16.75;;
40781;SDS011;26493;51.938;7.626;2022-10-19T05:59:02;36.92;;;18.13;;
40781;SDS011;26493;51.938;7.626;2022-10-19T06:01:29;24.35;;;16.15;;
40781;SDS011;26493;51.938;7.626;2022-10-19T06:03:56;30.15;;;17.02;;
40781;SDS011;26493;51.938;7.626;2022-10-19T06:06:22;27.38;;;16.25;;
40781;SDS011;26493;51.938;7.626;2022-10-19T06:08:49;40.00;;;18.02;;
40781;SDS011;26493;51.938;7.626;2022-10-19T06:11:16;29.23;;;16.33;;
40781;SDS011;26493;51.938;7.626;2022-10-19T06:13:43;27.35;;;16.60;;
40781;SDS011;26493;51.938;7.626;2022-10-19T06:16:10;30.98;;;18.98;;
40781;SDS011;26493;51.938;7.626;2022-10-19T06:18:36;25.42;;;15.32;;
40781;SDS011;26493;51.938;7.626;2022-10-19T06:21:06;28.08;;;15.80;;
40781;SDS011;26493;51.938;7.626;2022-10-19T06:23:35;28.55;;;16.77;;
40781;SDS011;26493;51.938;7.626;2022-10-19T06:26:03;32.00;;;18.42;;
40781;SDS011;26493;51.938;7.626;2022-10-19T06:28:29;24.77;;;15.80;;
40781;SDS011;26493;51.938;7.626;2022-10-19T06:30:56;29.42;;;15.68;;
40781;SDS011;26493;51.938;7.626;2022-10-19T06:33:22;29.00;;;16.38;;
40781;SDS011;26493;51.938;7.626;2022-10-19T06:35:48;29.13;;;16.60;;
40781;SDS011;26493;51.938;7.626;2022-10-19T06:38:14;25.98;;;15.10;;
40781;SDS011;26493;51.938;7.626;2022-10-19T06:40:41;30.17;;;16.17;;
40781;SDS011;26493;51.938;7.626;2022-10-19T06:43:07;27.23;;;16.30;;
40781;SDS011;26493;51.938;7.626;2022-10-19T06:45:33;26.23;;;15.05;;
40781;SDS011;26493;51.938;7.626;2022-10-19T06:47:59;24.75;;;14.48;;
40781;SDS011;26493;51.938;7.626;2022-10-19T06:50:25;30.00;;;15.55;;
40781;SDS011;26493;51.938;7.626;2022-10-19T06:52:51;26.95;;;15.43;;
40781;SDS011;26493;51.938;7.626;2022-10-19T06:55:17;25.35;;;14.73;;
40781;SDS011;26493;51.938;7.626;2022-10-19T06:57:43;26.48;;;13.45;;
40781;SDS011;26493;51.938;7.626;2022-10-19T07:00:10;20.70;;;13.07;;
40781;SDS011;26493;51.938;7.626;2022-10-19T07:02:36;21.60;;;12.98;;
40781;SDS011;26493;51.938;7.626;2022-10-19T07:05:02;19.52;;;13.05;;
40781;SDS011;26493;51.938;7.626;2022-10-19T07:07:28;24.40;;;13.45;;
40781;SDS011;26493;51.938;7.626;2022-10-19T07:09:54;21.38;;;13.75;;
40781;SDS011;26493;51.938;7.626;2022-10-19T07:12:20;22.33;;;13.85;;
40781;SDS011;26493;51.938;7.626;2022-10-19T07:14:46;22.58;;;13.93;;
40781;SDS011;26493;51.938;7.626;2022-10-19T07:17:12;20.25;;;12.43;;
40781;SDS011;26493;51.938;7.626;2022-10-19T07:19:38;20.95;;;13.20;;
40781;SDS011;26493;51.938;7.626;2022-10-19T07:22:04;25.02;;;13.77;;
40781;SDS011;26493;51.938;7.626;2022-10-19T07:24:30;21.42;;;12.82;;
40781;SDS011;26493;51.938;7.626;2022-10-19T07:26:56;23.27;;;11.85;;
40781;SDS011;26493;51.938;7.626;2022-10-19T07:29:22;22.65;;;12.70;;
40781;SDS011;26493;51.938;7.626;2022-10-19T07:31:48;20.67;;;11.73;;
40781;SDS011;26493;51.938;7.626;2022-10-19T07:34:14;21.85;;;12.75;;
40781;SDS011;26493;51.938;7.626;2022-10-19T07:36:42;23.35;;;12.98;;
40781;SDS011;26493;51.938;7.626;2022-10-19T07:39:09;19.75;;;12.15;;
40781;SDS011;26493;51.938;7.626;2022-10-19T07:41:36;22.50;;;12.65;;
40781;SDS011;26493;51.938;7.626;2022-10-19T07:44:02;23.27;;;14.10;;
40781;SDS011;26493;51.938;7.626;2022-10-19T07:46:29;20.10;;;13.07;;
40781;SDS011;26493;51.938;7.626;2022-10-19T07:48:59;25.33;;;15.10;;
40781;SDS011;26493;51.938;7.626;2022-10-19T07:51:26;22.52;;;13.35;;
40781;SDS011;26493;51.938;7.626;2022-10-19T07:53:52;20.58;;;11.43;;
40781;SDS011;26493;51.938;7.626;2022-10-19T07:56:19;25.27;;;12.55;;
40781;SDS011;26493;51.938;7.626;2022-10-19T07:58:46;24.88;;;13.23;;
40781;SDS011;26493;51.938;7.626;2022-10-19T08:01:16;22.90;;;14.15;;
40781;SDS011;26493;51.938;7.626;2022-10-19T08:03:42;23.15;;;13.00;;
40781;SDS011;26493;51.938;7.626;2022-10-19T08:06:09;20.42;;;12.75;;
40781;SDS011;26493;51.938;7.626;2022-10-19T08:08:36;17.42;;;11.00;;
40781;SDS011;26493;51.938;7.626;2022-10-19T08:13:34;18.85;;;11.70;;
40781;SDS011;26493;51.938;7.626;2022-10-19T08:16:00;20.23;;;10.82;;
40781;SDS011;26493;51.938;7.626;2022-10-19T08:18:26;20.05;;;11.70;;
40781;SDS011;26493;51.938;7.626;2022-10-19T08:20:52;21.05;;;10.40;;
40781;SDS011;26493;51.938;7.626;2022-10-19T08:23:18;17.90;;;10.32;;
40781;SDS011;26493;51.938;7.626;2022-10-19T08:25:44;20.02;;;10.40;;
40781;SDS011;26493;51.938;7.626;2022-10-19T08:28:10;22.58;;;11.38;;
40781;SDS011;26493;51.938;7.626;2022-10-19T08:30:36;19.67;;;10.30;;
40781;SDS011;26493;51.938;7.626;2022-10-19T08:33:02;19.77;;;10.98;;
40781;SDS011;26493;51.938;7.626;2022-10-19T08:35:31;17.25;;;9.95;;
40781;SDS011;26493;51.938;7.626;2022-10-19T08:37:57;18.40;;;9.90;;
40781;SDS011;26493;51.938;7.626;2022-10-19T08:40:24;26.45;;;10.30;;
40781;SDS011;26493;51.938;7.626;2022-10-19T08:45:36;19.05;;;9.63;;
40781;SDS011;26493;51.938;7.626;2022-10-19T08:48:17;16.77;;;9.45;;
40781;SDS011;26493;51.938;7.626;2022-10-19T08:50:45;18.52;;;10.75;;
40781;SDS011;26493;51.938;7.626;2022-10-19T08:53:15;20.85;;;10.20;;
40781;SDS011;26493;51.938;7.626;2022-10-19T08:58:17;19.08;;;9.68;;
40781;SDS011;26493;51.938;7.626;2022-10-19T09:03:18;24.90;;;10.40;;
40781;SDS011;26493;51.938;7.626;2022-10-19T09:08:28;18.55;;;9.30;;
40781;SDS011;26493;51.938;7.626;2022-10-19T09:10:54;18.00;;;9.60;;
40781;SDS011;26493;51.938;7.626;2022-10-19T09:13:35;19.17;;;9.30;;
40781;SDS011;26493;51.938;7.626;2022-10-19T09:16:02;17.65;;;9.10;;
40781;SDS011;26493;51.938;7.626;2022-10-19T09:18:32;22.30;;;8.77;;
40781;SDS011;26493;51.938;7.626;2022-10-19T09:21:08;21.38;;;9.07;;
40781;SDS011;26493;51.938;7.626;2022-10-19T09:26:19;18.60;;;9.65;;
40781;SDS011;26493;51.938;7.626;2022-10-19T09:31:27;16.27;;;8.73;;
40781;SDS011;26493;51.938;7.626;2022-10-19T09:33:55;18.65;;;9.18;;
40781;SDS011;26493;51.938;7.626;2022-10-19T09:36:23;18.90;;;8.90;;
40781;SDS011;26493;51.938;7.626;2022-10-19T09:38:49;16.67;;;8.77;;
40781;SDS011;26493;51.938;7.626;2022-10-19T09:41:21;21.33;;;9.10;;
40781;SDS011;26493;51.938;7.626;2022-10-19T09:43:54;16.77;;;8.48;;
40781;SDS011;26493;51.938;7.626;2022-10-19T09:47:04;16.63;;;9.50;;
40781;SDS011;26493;51.938;7.626;2022-10-19T09:49:12;16.65;;;8.80;;
40781;SDS011;26493;51.938;7.626;2022-10-19T09:51:51;15.30;;;8.13;;
40781;SDS011;26493;51.938;7.626;2022-10-19T09:56:59;15.27;;;8.00;;
40781;SDS011;26493;51.938;7.626;2022-10-19T09:59:27;20.10;;;9.30;;
40781;SDS011;26493;51.938;7.626;2022-10-19T10:02:10;18.95;;;9.23;;
40781;SDS011;26493;51.938;7.626;2022-10-19T10:04:38;14.98;;;8.65;;
40781;SDS011;26493;51.938;7.626;2022-10-19T10:07:05;19.70;;;10.63;;
40781;SDS011;26493;51.938;7.626;2022-10-19T10:09:33;21.17;;;11.68;;
40781;SDS011;26493;51.938;7.626;2022-10-19T10:12:02;19.38;;;10.05;;
40781;SDS011;26493;51.938;7.626;2022-10-19T10:14:32;22.77;;;12.75;;
40781;SDS011;26493;51.938;7.626;2022-10-19T10:19:37;19.10;;;9.40;;
40781;SDS011;26493;51.938;7.626;2022-10-19T10:22:27;17.05;;;9.45;;
40781;SDS011;26493;51.938;7.626;2022-10-19T10:24:54;15.20;;;8.50;;
40781;SDS011;26493;51.938;7.626;2022-10-19T10:27:38;16.25;;;9.05;;
40781;SDS011;26493;51.938;7.626;2022-10-19T10:30:06;17.45;;;9.25;;
40781;SDS011;26493;51.938;7.626;2022-10-19T10:32:35;14.20;;;8.32;;
40781;SDS011;26493;51.938;7.626;2022-10-19T10:35:03;16.45;;;8.85;;
40781;SDS011;26493;51.938;7.626;2022-10-19T10:37:33;16.25;;;8.48;;
40781;SDS011;26493;51.938;7.626;2022-10-19T10:40:00;17.00;;;8.63;;
40781;SDS011;26493;51.938;7.626;2022-10-19T10:42:28;16.92;;;8.80;;
40781;SDS011;26493;51.938;7.626;2022-10-19T10:44:54;16.60;;;8.82;;
40781;SDS011;26493;51.938;7.626;2022-10-19T10:47:20;14.95;;;9.32;;
40781;SDS011;26493;51.938;7.626;2022-10-19T10:49:54;20.50;;;8.90;;
40781;SDS011;26493;51.938;7.626;2022-10-19T10:52:20;18.52;;;9.20;;
40781;SDS011;26493;51.938;7.626;2022-10-19T10:57:36;17.35;;;9.27;;
40781;SDS011;26493;51.938;7.626;2022-10-19T11:00:09;16.85;;;9.75;;
40781;SDS011;26493;51.938;7.626;2022-10-19T11:05:29;15.52;;;9.73;;
40781;SDS011;26493;51.938;7.626;2022-10-19T11:10:36;18.67;;;11.00;;
40781;SDS011;26493;51.938;7.626;2022-10-19T11:13:06;16.05;;;10.40;;
40781;SDS011;26493;51.938;7.626;2022-10-19T11:18:41;19.45;;;10.48;;
40781;SDS011;26493;51.938;7.626;2022-10-19T11:21:09;18.67;;;11.30;;
40781;SDS011;26493;51.938;7.626;2022-10-19T11:42:05;17.33;;;11.00;;
40781;SDS011;26493;51.938;7.626;2022-10-19T11:49:45;17.75;;;11.68;;
40781;SDS011;26493;51.938;7.626;2022-10-19T11:57:37;16.98;;;10.82;;
40781;SDS011;26493;51.938;7.626;2022-10-19T12:00:09;18.65;;;11.63;;
40781;SDS011;26493;51.938;7.626;2022-10-19T12:10:31;17.35;;;11.60;;
40781;SDS011;26493;51.938;7.626;2022-10-19T12:13:02;21.10;;;11.68;;
40781;SDS011;26493;51.938;7.626;2022-10-19T12:20:49;18.52;;;11.70;;
40781;SDS011;26493;51.938;7.626;2022-10-19T12:23:29;19.52;;;11.52;;
40781;SDS011;26493;51.938;7.626;2022-10-19T12:25:57;17.55;;;11.20;;
40781;SDS011;26493;51.938;7.626;2022-10-19T12:28:31;16.58;;;11.10;;
40781;SDS011;26493;51.938;7.626;2022-10-19T12:30:58;16.67;;;10.68;;
40781;SDS011;26493;51.938;7.626;2022-10-19T12:38:45;16.45;;;10.38;;
40781;SDS011;26493;51.938;7.626;2022-10-19T12:51:43;16.88;;;10.98;;
40781;SDS011;26493;51.938;7.626;2022-10-19T12:54:09;20.02;;;10.90;;
40781;SDS011;26493;51.938;7.626;2022-10-19T12:56:46;16.35;;;10.38;;
40781;SDS011;26493;51.938;7.626;2022-10-19T12:59:25;17.90;;;10.65;;
40781;SDS011;26493;51.938;7.626;2022-10-19T13:01:52;16.52;;;10.35;;
40781;SDS011;26493;51.938;7.626;2022-10-19T13:04:28;18.40;;;10.60;;
40781;SDS011;26493;51.938;7.626;2022-10-19T13:17:07;18.60;;;11.13;;
40781;SDS011;26493;51.938;7.626;2022-10-19T13:19:33;18.60;;;10.80;;
40781;SDS011;26493;51.938;7.626;2022-10-19T13:29:45;18.50;;;11.15;;
40781;SDS011;26493;51.938;7.626;2022-10-19T13:37:40;17.50;;;11.15;;
40781;SDS011;26493;51.938;7.626;2022-10-19T13:40:18;16.27;;;10.90;;
40781;SDS011;26493;51.938;7.626;2022-10-19T13:42:44;18.17;;;11.20;;
40781;SDS011;26493;51.938;7.626;2022-10-19T13:45:22;17.73;;;11.15;;
40781;SDS011;26493;51.938;7.626;2022-10-19T13:47:50;19.77;;;11.45;;
40781;SDS011;26493;51.938;7.626;2022-10-19T13:53:03;17.77;;;11.02;;
40781;SDS011;26493;51.938;7.626;2022-10-19T13:55:42;17.90;;;10.65;;
40781;SDS011;26493;51.938;7.626;2022-10-19T14:03:34;17.08;;;11.30;;
40781;SDS011;26493;51.938;7.626;2022-10-19T14:09:20;17.20;;;11.45;;
40781;SDS011;26493;51.938;7.626;2022-10-19T14:11:51;19.38;;;11.30;;
40781;SDS011;26493;51.938;7.626;2022-10-19T14:17:00;16.90;;;10.98;;
40781;SDS011;26493;51.938;7.626;2022-10-19T14:19:46;17.65;;;10.85;;
40781;SDS011;26493;51.938;7.626;2022-10-19T14:24:43;15.65;;;11.10;;
40781;SDS011;26493;51.938;7.626;2022-10-19T14:27:10;16.05;;;10.75;;
40781;SDS011;26493;51.938;7.626;2022-10-19T14:29:44;17.27;;;11.60;;
40781;SDS011;26493;51.938;7.626;2022-10-19T14:32:11;17.85;;;10.98;;
40781;SDS011;26493;51.938;7.626;2022-10-19T14:34:43;17.80;;;10.55;;
40781;SDS011;26493;51.938;7.626;2022-10-19T14:37:20;19.10;;;10.85;;
40781;SDS011;26493;51.938;7.626;2022-10-19T14:40:47;17.38;;;10.90;;
40781;SDS011;26493;51.938;7.626;2022-10-19T14:42:43;16.13;;;11.23;;
40781;SDS011;26493;51.938;7.626;2022-10-19T14:45:28;18.23;;;10.77;;
40781;SDS011;26493;51.938;7.626;2022-10-19T14:50:30;16.00;;;10.52;;
40781;SDS011;26493;51.938;7.626;2022-10-19T14:53:00;17.88;;;10.95;;
40781;SDS011;26493;51.938;7.626;2022-10-19T14:55:28;15.55;;;10.60;;
40781;SDS011;26493;51.938;7.626;2022-10-19T14:57:57;16.13;;;10.43;;
40781;SDS011;26493;51.938;7.626;2022-10-19T15:00:23;19.37;;;10.07;;
40781;SDS011;26493;51.938;7.626;2022-10-19T15:05:17;16.85;;;10.65;;
40781;SDS011;26493;51.938;7.626;2022-10-19T15:07:44;18.35;;;11.20;;
40781;SDS011;26493;51.938;7.626;2022-10-19T15:10:53;15.48;;;10.43;;
40781;SDS011;26493;51.938;7.626;2022-10-19T15:13:00;18.70;;;11.65;;
40781;SDS011;26493;51.938;7.626;2022-10-19T15:15:28;15.98;;;10.07;;
40781;SDS011;26493;51.938;7.626;2022-10-19T15:17:56;16.55;;;10.35;;
40781;SDS011;26493;51.938;7.626;2022-10-19T15:20:31;15.98;;;10.38;;
40781;SDS011;26493;51.938;7.626;2022-10-19T15:22:58;17.55;;;10.50;;
40781;SDS011;26493;51.938;7.626;2022-10-19T15:27:54;20.55;;;10.05;;
40781;SDS011;26493;51.938;7.626;2022-10-19T15:30:28;18.20;;;9.43;;
40781;SDS011;26493;51.938;7.626;2022-10-19T15:33:06;16.92;;;10.05;;
40781;SDS011;26493;51.938;7.626;2022-10-19T15:35:33;18.53;;;10.00;;
40781;SDS011;26493;51.938;7.626;2022-10-19T15:46:34;15.27;;;9.85;;
40781;SDS011;26493;51.938;7.626;2022-10-19T15:53:53;22.35;;;14.45;;
40781;SDS011;26493;51.938;7.626;2022-10-19T15:56:20;17.45;;;10.98;;
40781;SDS011;26493;51.938;7.626;2022-10-19T15:58:50;18.48;;;10.95;;
40781;SDS011;26493;51.938;7.626;2022-10-19T16:01:17;16.77;;;10.35;;
40781;SDS011;26493;51.938;7.626;2022-10-19T16:03:44;19.13;;;10.25;;
40781;SDS011;26493;51.938;7.626;2022-10-19T16:06:10;15.73;;;9.60;;
40781;SDS011;26493;51.938;7.626;2022-10-19T16:08:36;22.08;;;11.23;;
40781;SDS011;26493;51.938;7.626;2022-10-19T16:11:02;18.20;;;9.48;;
40781;SDS011;26493;51.938;7.626;2022-10-19T16:13:29;19.70;;;9.95;;
40781;SDS011;26493;51.938;7.626;2022-10-19T16:15:58;17.50;;;10.30;;
40781;SDS011;26493;51.938;7.626;2022-10-19T16:18:25;27.25;;;14.88;;
40781;SDS011;26493;51.938;7.626;2022-10-19T16:20:51;16.08;;;9.45;;
40781;SDS011;26493;51.938;7.626;2022-10-19T16:23:17;19.95;;;9.43;;
40781;SDS011;26493;51.938;7.626;2022-10-19T16:25:43;20.08;;;9.13;;
40781;SDS011;26493;51.938;7.626;2022-10-19T16:28:09;20.42;;;11.40;;
40781;SDS011;26493;51.938;7.626;2022-10-19T16:30:35;17.50;;;10.02;;
40781;SDS011;26493;51.938;7.626;2022-10-19T16:33:01;19.55;;;11.10;;
40781;SDS011;26493;51.938;7.626;2022-10-19T16:35:28;16.02;;;10.00;;
40781;SDS011;26493;51.938;7.626;2022-10-19T16:37:54;17.83;;;10.13;;
40781;SDS011;26493;51.938;7.626;2022-10-19T16:40:20;18.20;;;9.65;;
40781;SDS011;26493;51.938;7.626;2022-10-19T16:42:48;18.17;;;8.90;;
40781;SDS011;26493;51.938;7.626;2022-10-19T16:45:14;19.63;;;10.68;;
40781;SDS011;26493;51.938;7.626;2022-10-19T16:47:40;18.73;;;9.77;;
40781;SDS011;26493;51.938;7.626;2022-10-19T16:50:06;17.23;;;9.25;;
40781;SDS011;26493;51.938;7.626;2022-10-19T16:52:33;17.83;;;9.43;;
40781;SDS011;26493;51.938;7.626;2022-10-19T16:54:59;18.60;;;8.55;;
40781;SDS011;26493;51.938;7.626;2022-10-19T16:57:25;17.60;;;8.13;;
40781;SDS011;26493;51.938;7.626;2022-10-19T16:59:51;17.80;;;8.82;;
40781;SDS011;26493;51.938;7.626;2022-10-19T17:02:18;17.00;;;8.10;;
40781;SDS011;26493;51.938;7.626;2022-10-19T17:04:44;19.05;;;8.40;;
40781;SDS011;26493;51.938;7.626;2022-10-19T17:07:11;17.65;;;8.70;;
40781;SDS011;26493;51.938;7.626;2022-10-19T17:09:37;17.98;;;8.25;;
40781;SDS011;26493;51.938;7.626;2022-10-19T17:12:03;22.77;;;8.10;;
40781;SDS011;26493;51.938;7.626;2022-10-19T17:14:30;17.35;;;8.38;;
40781;SDS011;26493;51.938;7.626;2022-10-19T17:16:56;20.13;;;8.80;;
40781;SDS011;26493;51.938;7.626;2022-10-19T17:19:22;19.13;;;8.90;;
40781;SDS011;26493;51.938;7.626;2022-10-19T17:21:48;16.10;;;8.38;;